sensor_id;sensor_type;location;lat;lon;timestamp;pressure;altitude;pressure_sealevel;temperature;humidity
24610;BME280;12758;47.890;11.694;2022-09-09T00:01:37;93689.66;;;18.71;64.44
24610;BME280;12758;47.890;11.694;2022-09-09T00:04:13;93685.00;;;18.75;64.87
24610;BME280;12758;47.890;11.694;2022-09-09T00:06:44;93685.75;;;18.72;64.28
24610;BME280;12758;47.890;11.694;2022-09-09T00:09:13;93695.94;;;18.71;64.59
24610;BME280;12758;47.890;11.694;2022-09-09T00:11:43;93693.94;;;18.65;65.09
24610;BME280;12758;47.890;11.694;2022-09-09T00:14:16;93686.84;;;18.63;64.82
24610;BME280;12758;47.890;11.694;2022-09-09T00:16:46;93695.09;;;18.63;64.67
24610;BME280;12758;47.890;11.694;2022-09-09T00:19:20;93693.94;;;18.65;64.76
24610;BME280;12758;47.890;11.694;2022-09-09T00:21:53;93683.31;;;18.59;64.99
24610;BME280;12758;47.890;11.694;2022-09-09T00:24:26;93695.84;;;18.57;64.90
24610;BME280;12758;47.890;11.694;2022-09-09T00:26:56;93698.25;;;18.62;64.98
24610;BME280;12758;47.890;11.694;2022-09-09T00:29:28;93688.03;;;18.62;64.85
24610;BME280;12758;47.890;11.694;2022-09-09T00:32:00;93691.94;;;18.61;64.64
24610;BME280;12758;47.890;11.694;2022-09-09T00:34:30;93701.38;;;18.64;64.90
24610;BME280;12758;47.890;11.694;2022-09-09T00:36:59;93696.69;;;18.65;64.43
24610;BME280;12758;47.890;11.694;2022-09-09T00:39:30;93702.91;;;18.54;63.90
24610;BME280;12758;47.890;11.694;2022-09-09T00:42:03;93691.91;;;18.54;64.75
24610;BME280;12758;47.890;11.694;2022-09-09T00:44:36;93691.91;;;18.54;64.79
24610;BME280;12758;47.890;11.694;2022-09-09T00:47:16;93699.75;;;18.52;64.89
24610;BME280;12758;47.890;11.694;2022-09-09T00:49:53;93698.97;;;18.55;64.77
24610;BME280;12758;47.890;11.694;2022-09-09T00:52:32;93692.66;;;18.48;65.19
24610;BME280;12758;47.890;11.694;2022-09-09T00:55:05;93690.28;;;18.46;65.18
24610;BME280;12758;47.890;11.694;2022-09-09T00:57:34;93697.34;;;18.47;65.17
24610;BME280;12758;47.890;11.694;2022-09-09T01:00:19;93688.69;;;18.45;65.21
24610;BME280;12758;47.890;11.694;2022-09-09T01:02:59;93696.56;;;18.43;65.14
24610;BME280;12758;47.890;11.694;2022-09-09T01:05:34;93701.28;;;18.46;65.25
24610;BME280;12758;47.890;11.694;2022-09-09T01:08:05;93700.53;;;18.49;65.12
24610;BME280;12758;47.890;11.694;2022-09-09T01:10:39;93698.13;;;18.48;65.30
24610;BME280;12758;47.890;11.694;2022-09-09T01:13:11;93704.38;;;18.41;65.22
24610;BME280;12758;47.890;11.694;2022-09-09T01:15:40;93697.34;;;18.47;65.16
24610;BME280;12758;47.890;11.694;2022-09-09T01:18:10;93703.63;;;18.44;65.13
24610;BME280;12758;47.890;11.694;2022-09-09T01:20:42;93707.13;;;18.41;65.47
24610;BME280;12758;47.890;11.694;2022-09-09T01:23:33;93705.59;;;18.47;65.22
24610;BME280;12758;47.890;11.694;2022-09-09T01:26:09;93702.84;;;18.47;65.15
24610;BME280;12758;47.890;11.694;2022-09-09T01:28:40;93708.34;;;18.47;65.42
24610;BME280;12758;47.890;11.694;2022-09-09T01:31:07;93704.41;;;18.48;65.04
24610;BME280;12758;47.890;11.694;2022-09-09T01:33:36;93702.84;;;18.47;65.04
24610;BME280;12758;47.890;11.694;2022-09-09T01:36:05;93702.03;;;18.43;64.90
24610;BME280;12758;47.890;11.694;2022-09-09T01:38:33;93705.84;;;18.28;65.53
24610;BME280;12758;47.890;11.694;2022-09-09T01:41:00;93707.84;;;18.31;65.35
24610;BME280;12758;47.890;11.694;2022-09-09T01:43:27;93698.06;;;18.37;65.31
24610;BME280;12758;47.890;11.694;2022-09-09T01:45:55;93711.28;;;18.17;66.01
24610;BME280;12758;47.890;11.694;2022-09-09T01:48:22;93702.59;;;18.11;66.16
24610;BME280;12758;47.890;11.694;2022-09-09T01:50:49;93706.19;;;18.23;66.02
24610;BME280;12758;47.890;11.694;2022-09-09T01:53:15;93708.19;;;18.29;65.70
24610;BME280;12758;47.890;11.694;2022-09-09T01:55:46;93712.91;;;18.29;65.71
24610;BME280;12758;47.890;11.694;2022-09-09T01:58:21;93708.19;;;18.29;65.79
24610;BME280;12758;47.890;11.694;2022-09-09T02:00:55;93706.59;;;18.25;65.91
24610;BME280;12758;47.890;11.694;2022-09-09T02:03:25;93709.66;;;18.12;66.20
24610;BME280;12758;47.890;11.694;2022-09-09T02:05:56;93701.81;;;18.14;66.36
24610;BME280;12758;47.890;11.694;2022-09-09T02:08:29;93708.03;;;17.70;68.84
24610;BME280;12758;47.890;11.694;2022-09-09T02:11:01;93702.88;;;17.65;69.55
24610;BME280;12758;47.890;11.694;2022-09-09T02:13:30;93705.09;;;17.53;70.37
24610;BME280;12758;47.890;11.694;2022-09-09T02:16:00;93703.91;;;17.50;70.64
24610;BME280;12758;47.890;11.694;2022-09-09T02:18:30;93698.50;;;17.57;70.14
24610;BME280;12758;47.890;11.694;2022-09-09T02:20:58;93697.47;;;17.69;69.15
24610;BME280;12758;47.890;11.694;2022-09-09T02:23:25;93702.00;;;17.54;69.91
24610;BME280;12758;47.890;11.694;2022-09-09T02:25:51;93697.59;;;17.12;72.82
24610;BME280;12758;47.890;11.694;2022-09-09T02:28:19;93700.69;;;17.11;73.04
24610;BME280;12758;47.890;11.694;2022-09-09T02:30:47;93697.50;;;17.05;73.29
24610;BME280;12758;47.890;11.694;2022-09-09T02:33:22;93701.16;;;16.83;74.72
24610;BME280;12758;47.890;11.694;2022-09-09T02:35:49;93700.88;;;16.95;73.88
24610;BME280;12758;47.890;11.694;2022-09-09T02:38:16;93693.38;;;16.88;74.00
24610;BME280;12758;47.890;11.694;2022-09-09T02:40:43;93687.19;;;16.95;73.63
24610;BME280;12758;47.890;11.694;2022-09-09T02:43:09;93693.28;;;16.81;75.19
24610;BME280;12758;47.890;11.694;2022-09-09T02:45:39;93690.19;;;16.83;74.72
24610;BME280;12758;47.890;11.694;2022-09-09T02:48:11;93697.53;;;16.52;76.25
24610;BME280;12758;47.890;11.694;2022-09-09T02:50:43;93696.75;;;16.51;76.60
24610;BME280;12758;47.890;11.694;2022-09-09T02:53:16;93694.19;;;16.36;77.42
24610;BME280;12758;47.890;11.694;2022-09-09T02:55:45;93684.63;;;16.26;77.28
24610;BME280;12758;47.890;11.694;2022-09-09T02:58:14;93680.97;;;16.15;77.93
24610;BME280;12758;47.890;11.694;2022-09-09T03:00:43;93688.41;;;16.41;76.60
24610;BME280;12758;47.890;11.694;2022-09-09T03:03:09;93676.56;;;16.63;74.86
24610;BME280;12758;47.890;11.694;2022-09-09T03:05:36;93671.31;;;16.77;74.49
24610;BME280;12758;47.890;11.694;2022-09-09T03:08:03;93675.31;;;16.84;73.49
24610;BME280;12758;47.890;11.694;2022-09-09T03:10:31;93669.63;;;16.69;74.74
24610;BME280;12758;47.890;11.694;2022-09-09T03:12:57;93662.19;;;16.43;76.08
24610;BME280;12758;47.890;11.694;2022-09-09T03:15:23;93664.53;;;16.41;75.95
24610;BME280;12758;47.890;11.694;2022-09-09T03:17:49;93661.50;;;16.50;75.45
24610;BME280;12758;47.890;11.694;2022-09-09T03:20:16;93658.25;;;16.41;76.14
24610;BME280;12758;47.890;11.694;2022-09-09T03:22:43;93650.22;;;16.55;75.91
24610;BME280;12758;47.890;11.694;2022-09-09T03:25:11;93654.00;;;16.73;74.08
24610;BME280;12758;47.890;11.694;2022-09-09T03:27:37;93654.66;;;16.63;74.86
24610;BME280;12758;47.890;11.694;2022-09-09T03:30:03;93658.78;;;16.76;73.85
24610;BME280;12758;47.890;11.694;2022-09-09T03:32:31;93667.63;;;16.40;75.63
24610;BME280;12758;47.890;11.694;2022-09-09T03:34:57;93654.97;;;16.58;74.90
24610;BME280;12758;47.890;11.694;2022-09-09T03:37:23;93656.59;;;16.89;73.06
24610;BME280;12758;47.890;11.694;2022-09-09T03:39:49;93655.97;;;17.03;72.24
24610;BME280;12758;47.890;11.694;2022-09-09T03:42:16;93655.06;;;16.92;72.95
24610;BME280;12758;47.890;11.694;2022-09-09T03:44:44;93652.19;;;17.15;71.91
24610;BME280;12758;47.890;11.694;2022-09-09T03:47:11;93645.34;;;17.35;71.22
24610;BME280;12758;47.890;11.694;2022-09-09T03:49:37;93639.97;;;17.46;70.30
24610;BME280;12758;47.890;11.694;2022-09-09T03:52:03;93644.38;;;17.54;69.98
24610;BME280;12758;47.890;11.694;2022-09-09T03:54:29;93648.75;;;17.62;69.60
24610;BME280;12758;47.890;11.694;2022-09-09T03:56:55;93640.09;;;17.60;69.63
24610;BME280;12758;47.890;11.694;2022-09-09T03:59:22;93654.53;;;17.50;69.66
24610;BME280;12758;47.890;11.694;2022-09-09T04:01:48;93655.84;;;17.67;69.60
24610;BME280;12758;47.890;11.694;2022-09-09T04:04:14;93649.63;;;17.70;69.00
24610;BME280;12758;47.890;11.694;2022-09-09T04:06:40;93651.16;;;17.67;69.02
24610;BME280;12758;47.890;11.694;2022-09-09T04:09:06;93651.88;;;17.61;69.01
24610;BME280;12758;47.890;11.694;2022-09-09T04:11:32;93641.69;;;17.61;68.91
24610;BME280;12758;47.890;11.694;2022-09-09T04:13:58;93647.84;;;17.51;69.49
24610;BME280;12758;47.890;11.694;2022-09-09T04:16:25;93647.44;;;17.49;69.53
24610;BME280;12758;47.890;11.694;2022-09-09T04:18:51;93635.38;;;17.57;69.17
24610;BME280;12758;47.890;11.694;2022-09-09T04:21:18;93633.84;;;17.60;68.73
24610;BME280;12758;47.890;11.694;2022-09-09T04:23:44;93641.16;;;17.49;69.82
24610;BME280;12758;47.890;11.694;2022-09-09T04:26:10;93635.88;;;17.29;70.61
24610;BME280;12758;47.890;11.694;2022-09-09T04:28:36;93636.44;;;17.08;70.87
24610;BME280;12758;47.890;11.694;2022-09-09T04:31:07;93639.50;;;17.03;71.40
24610;BME280;12758;47.890;11.694;2022-09-09T04:33:35;93635.97;;;17.03;71.60
24610;BME280;12758;47.890;11.694;2022-09-09T04:36:01;93647.31;;;17.01;71.45
24610;BME280;12758;47.890;11.694;2022-09-09T04:38:27;93644.91;;;16.96;71.58
24610;BME280;12758;47.890;11.694;2022-09-09T04:40:53;93649.22;;;16.67;73.75
24610;BME280;12758;47.890;11.694;2022-09-09T04:43:19;93648.44;;;16.40;74.83
24610;BME280;12758;47.890;11.694;2022-09-09T04:45:47;93633.06;;;16.32;75.34
24610;BME280;12758;47.890;11.694;2022-09-09T04:48:14;93627.34;;;16.70;73.98
24610;BME280;12758;47.890;11.694;2022-09-09T04:50:40;93630.00;;;16.63;73.87
24610;BME280;12758;47.890;11.694;2022-09-09T04:53:07;93623.75;;;16.66;74.10
24610;BME280;12758;47.890;11.694;2022-09-09T04:55:33;93629.53;;;16.88;72.88
24610;BME280;12758;47.890;11.694;2022-09-09T04:58:03;93629.16;;;16.89;72.99
24610;BME280;12758;47.890;11.694;2022-09-09T05:00:29;93619.94;;;17.05;72.17
24610;BME280;12758;47.890;11.694;2022-09-09T05:02:55;93625.13;;;16.80;73.68
24610;BME280;12758;47.890;11.694;2022-09-09T05:05:21;93634.84;;;17.07;72.19
24610;BME280;12758;47.890;11.694;2022-09-09T05:07:48;93635.84;;;17.26;71.00
24610;BME280;12758;47.890;11.694;2022-09-09T05:10:14;93631.91;;;17.27;70.82
24610;BME280;12758;47.890;11.694;2022-09-09T05:12:52;93628.78;;;17.25;70.62
24610;BME280;12758;47.890;11.694;2022-09-09T05:15:18;93637.50;;;17.34;70.44
24610;BME280;12758;47.890;11.694;2022-09-09T05:17:44;93647.72;;;17.37;70.73
24610;BME280;12758;47.890;11.694;2022-09-09T05:20:10;93646.97;;;17.40;70.15
24610;BME280;12758;47.890;11.694;2022-09-09T05:22:37;93646.25;;;17.46;69.71
24610;BME280;12758;47.890;11.694;2022-09-09T05:25:04;93639.22;;;17.53;69.73
24610;BME280;12758;47.890;11.694;2022-09-09T05:27:30;93651.78;;;17.50;69.64
24610;BME280;12758;47.890;11.694;2022-09-09T05:29:57;93644.69;;;17.49;69.85
24610;BME280;12758;47.890;11.694;2022-09-09T05:32:23;93654.13;;;17.52;69.44
24610;BME280;12758;47.890;11.694;2022-09-09T05:34:49;93653.03;;;17.56;69.45
24610;BME280;12758;47.890;11.694;2022-09-09T05:37:17;93661.25;;;17.56;69.42
24610;BME280;12758;47.890;11.694;2022-09-09T05:39:43;93655.75;;;17.56;69.16
24610;BME280;12758;47.890;11.694;2022-09-09T05:42:10;93668.72;;;17.59;69.16
24610;BME280;12758;47.890;11.694;2022-09-09T05:44:36;93662.63;;;17.39;70.08
24610;BME280;12758;47.890;11.694;2022-09-09T05:47:02;93681.28;;;17.27;71.05
24610;BME280;12758;47.890;11.694;2022-09-09T05:49:28;93683.25;;;17.26;70.88
24610;BME280;12758;47.890;11.694;2022-09-09T05:51:54;93670.47;;;17.37;70.04
24610;BME280;12758;47.890;11.694;2022-09-09T05:54:21;93684.53;;;17.36;69.96
24610;BME280;12758;47.890;11.694;2022-09-09T05:56:47;93672.66;;;17.25;70.69
24610;BME280;12758;47.890;11.694;2022-09-09T05:59:16;93676.09;;;17.14;71.40
24610;BME280;12758;47.890;11.694;2022-09-09T06:01:43;93669.97;;;16.98;72.70
24610;BME280;12758;47.890;11.694;2022-09-09T06:04:10;93666.25;;;16.80;72.59
24610;BME280;12758;47.890;11.694;2022-09-09T06:06:37;93672.72;;;16.68;73.92
24610;BME280;12758;47.890;11.694;2022-09-09T06:09:06;93668.00;;;16.68;74.14
24610;BME280;12758;47.890;11.694;2022-09-09T06:11:36;93670.44;;;16.73;73.58
24610;BME280;12758;47.890;11.694;2022-09-09T06:14:03;93674.47;;;16.80;73.46
24610;BME280;12758;47.890;11.694;2022-09-09T06:16:30;93671.09;;;16.63;73.78
24610;BME280;12758;47.890;11.694;2022-09-09T06:18:58;93681.94;;;16.56;75.29
24610;BME280;12758;47.890;11.694;2022-09-09T06:21:25;93672.66;;;16.64;74.09
24610;BME280;12758;47.890;11.694;2022-09-09T06:23:52;93676.16;;;16.61;74.69
24610;BME280;12758;47.890;11.694;2022-09-09T06:26:19;93664.88;;;16.66;74.31
24610;BME280;12758;47.890;11.694;2022-09-09T06:28:46;93673.22;;;16.47;75.98
24610;BME280;12758;47.890;11.694;2022-09-09T06:31:15;93678.47;;;16.33;77.49
24610;BME280;12758;47.890;11.694;2022-09-09T06:33:43;93684.06;;;16.40;76.42
24610;BME280;12758;47.890;11.694;2022-09-09T06:36:12;93678.47;;;16.33;77.13
24610;BME280;12758;47.890;11.694;2022-09-09T06:38:38;93679.09;;;16.22;77.63
24610;BME280;12758;47.890;11.694;2022-09-09T06:41:04;93672.25;;;16.36;76.87
24610;BME280;12758;47.890;11.694;2022-09-09T06:43:31;93681.19;;;16.59;75.17
24610;BME280;12758;47.890;11.694;2022-09-09T06:45:58;93683.38;;;16.73;74.27
24610;BME280;12758;47.890;11.694;2022-09-09T06:48:24;93682.28;;;16.77;74.08
24610;BME280;12758;47.890;11.694;2022-09-09T06:50:59;93687.84;;;16.32;76.23
24610;BME280;12758;47.890;11.694;2022-09-09T06:53:26;93689.59;;;15.94;77.95
24610;BME280;12758;47.890;11.694;2022-09-09T06:55:52;93689.72;;;16.01;78.08
24610;BME280;12758;47.890;11.694;2022-09-09T06:58:18;93686.16;;;16.23;77.47
24610;BME280;12758;47.890;11.694;2022-09-09T07:00:44;93686.16;;;16.23;77.22
24610;BME280;12758;47.890;11.694;2022-09-09T07:03:10;93683.84;;;16.25;76.66
24610;BME280;12758;47.890;11.694;2022-09-09T07:05:36;93680.78;;;16.30;76.31
24610;BME280;12758;47.890;11.694;2022-09-09T07:08:03;93676.38;;;16.49;75.69
24610;BME280;12758;47.890;11.694;2022-09-09T07:10:29;93684.69;;;16.29;76.59
24610;BME280;12758;47.890;11.694;2022-09-09T07:12:56;93679.84;;;16.46;75.28
24610;BME280;12758;47.890;11.694;2022-09-09T07:15:22;93679.00;;;16.15;77.22
24610;BME280;12758;47.890;11.694;2022-09-09T07:17:48;93683.00;;;16.21;76.43
24610;BME280;12758;47.890;11.694;2022-09-09T07:20:14;93674.44;;;16.00;77.66
24610;BME280;12758;47.890;11.694;2022-09-09T07:22:41;93679.69;;;16.09;78.17
24610;BME280;12758;47.890;11.694;2022-09-09T07:25:08;93676.81;;;16.24;76.59
24610;BME280;12758;47.890;11.694;2022-09-09T07:27:34;93679.19;;;16.03;77.84
24610;BME280;12758;47.890;11.694;2022-09-09T07:30:00;93691.97;;;16.18;77.84
24610;BME280;12758;47.890;11.694;2022-09-09T07:32:27;93683.75;;;16.18;76.63
24610;BME280;12758;47.890;11.694;2022-09-09T07:34:53;93699.59;;;16.32;75.48
24610;BME280;12758;47.890;11.694;2022-09-09T07:37:19;93713.44;;;16.16;76.89
24610;BME280;12758;47.890;11.694;2022-09-09T07:39:45;93707.50;;;15.88;78.76
24610;BME280;12758;47.890;11.694;2022-09-09T07:42:12;93722.06;;;15.95;78.22
24610;BME280;12758;47.890;11.694;2022-09-09T07:44:38;93753.09;;;15.80;79.99
24610;BME280;12758;47.890;11.694;2022-09-09T07:47:05;93761.25;;;15.76;79.58
24610;BME280;12758;47.890;11.694;2022-09-09T07:49:31;93773.69;;;16.16;78.22
24610;BME280;12758;47.890;11.694;2022-09-09T07:51:58;93758.97;;;16.24;77.10
24610;BME280;12758;47.890;11.694;2022-09-09T07:54:24;93760.59;;;16.06;77.68
24610;BME280;12758;47.890;11.694;2022-09-09T07:56:52;93765.91;;;15.76;78.76
24610;BME280;12758;47.890;11.694;2022-09-09T07:59:19;93771.31;;;15.72;79.17
24610;BME280;12758;47.890;11.694;2022-09-09T08:01:46;93772.34;;;16.06;78.01
24610;BME280;12758;47.890;11.694;2022-09-09T08:04:14;93769.91;;;16.24;76.59
24610;BME280;12758;47.890;11.694;2022-09-09T08:06:42;93763.50;;;16.40;75.42
24610;BME280;12758;47.890;11.694;2022-09-09T08:09:09;93759.13;;;16.35;75.23
24610;BME280;12758;47.890;11.694;2022-09-09T08:11:36;93766.75;;;16.22;76.38
24610;BME280;12758;47.890;11.694;2022-09-09T08:14:02;93763.03;;;16.34;76.03
24610;BME280;12758;47.890;11.694;2022-09-09T08:16:31;93757.78;;;16.48;75.89
24610;BME280;12758;47.890;11.694;2022-09-09T08:18:58;93767.94;;;16.48;75.27
24610;BME280;12758;47.890;11.694;2022-09-09T08:21:27;93773.00;;;16.46;75.68
24610;BME280;12758;47.890;11.694;2022-09-09T08:23:54;93769.72;;;16.37;75.43
24610;BME280;12758;47.890;11.694;2022-09-09T08:26:22;93768.88;;;16.59;74.68
24610;BME280;12758;47.890;11.694;2022-09-09T08:28:49;93778.56;;;16.53;75.53
24610;BME280;12758;47.890;11.694;2022-09-09T08:31:18;93772.59;;;16.44;76.00
24610;BME280;12758;47.890;11.694;2022-09-09T08:33:45;93771.31;;;16.64;74.94
24610;BME280;12758;47.890;11.694;2022-09-09T08:36:12;93775.19;;;16.60;75.71
24610;BME280;12758;47.890;11.694;2022-09-09T08:38:40;93774.59;;;16.73;74.38
24610;BME280;12758;47.890;11.694;2022-09-09T08:41:15;93780.09;;;16.73;74.82
24610;BME280;12758;47.890;11.694;2022-09-09T08:43:43;93783.25;;;16.75;74.46
24610;BME280;12758;47.890;11.694;2022-09-09T08:46:14;93784.97;;;16.84;73.64
24610;BME280;12758;47.890;11.694;2022-09-09T08:48:51;93777.91;;;16.83;73.95
24610;BME280;12758;47.890;11.694;2022-09-09T08:51:18;93784.59;;;16.62;75.67
24610;BME280;12758;47.890;11.694;2022-09-09T08:53:47;93788.06;;;16.59;76.73
24610;BME280;12758;47.890;11.694;2022-09-09T08:56:16;93778.81;;;16.67;74.84
24610;BME280;12758;47.890;11.694;2022-09-09T08:58:45;93780.88;;;16.74;74.57
24610;BME280;12758;47.890;11.694;2022-09-09T09:01:31;93772.84;;;16.62;75.60
24610;BME280;12758;47.890;11.694;2022-09-09T09:04:03;93776.19;;;16.74;74.46
24610;BME280;12758;47.890;11.694;2022-09-09T09:06:39;93775.94;;;16.83;74.17
24610;BME280;12758;47.890;11.694;2022-09-09T09:09:11;93772.59;;;16.70;74.97
24610;BME280;12758;47.890;11.694;2022-09-09T09:11:39;93770.69;;;16.74;74.56
24610;BME280;12758;47.890;11.694;2022-09-09T09:14:09;93771.31;;;16.64;75.54
24610;BME280;12758;47.890;11.694;2022-09-09T09:16:38;93784.00;;;16.49;77.08
24610;BME280;12758;47.890;11.694;2022-09-09T09:19:08;93790.53;;;16.41;77.96
24610;BME280;12758;47.890;11.694;2022-09-09T09:21:41;93787.31;;;16.36;78.56
24610;BME280;12758;47.890;11.694;2022-09-09T09:24:14;93792.50;;;16.41;77.38
24610;BME280;12758;47.890;11.694;2022-09-09T09:26:42;93793.16;;;16.57;76.01
24610;BME280;12758;47.890;11.694;2022-09-09T09:29:12;93795.00;;;16.53;77.02
24610;BME280;12758;47.890;11.694;2022-09-09T09:31:42;93811.16;;;16.58;76.18
24610;BME280;12758;47.890;11.694;2022-09-09T09:34:10;93803.47;;;16.67;76.01
24610;BME280;12758;47.890;11.694;2022-09-09T09:36:40;93805.06;;;16.68;75.51
24610;BME280;12758;47.890;11.694;2022-09-09T09:39:07;93820.03;;;16.74;75.26
24610;BME280;12758;47.890;11.694;2022-09-09T09:41:36;93810.97;;;16.70;75.71
24610;BME280;12758;47.890;11.694;2022-09-09T09:44:04;93812.88;;;16.66;76.36
24610;BME280;12758;47.890;11.694;2022-09-09T09:46:31;93819.69;;;16.53;78.33
24610;BME280;12758;47.890;11.694;2022-09-09T09:48:58;93813.97;;;16.39;79.02
24610;BME280;12758;47.890;11.694;2022-09-09T09:51:25;93810.19;;;16.01;82.12
24610;BME280;12758;47.890;11.694;2022-09-09T09:53:51;93815.06;;;16.11;82.04
24610;BME280;12758;47.890;11.694;2022-09-09T09:56:26;93821.91;;;16.01;84.18
24610;BME280;12758;47.890;11.694;2022-09-09T09:58:52;93824.75;;;15.86;84.42
24610;BME280;12758;47.890;11.694;2022-09-09T10:01:20;93828.84;;;15.56;86.00
24610;BME280;12758;47.890;11.694;2022-09-09T10:03:50;93827.47;;;15.66;86.06
24610;BME280;12758;47.890;11.694;2022-09-09T10:06:16;93824.47;;;15.71;86.25
24610;BME280;12758;47.890;11.694;2022-09-09T10:08:45;93818.72;;;15.57;86.63
24610;BME280;12758;47.890;11.694;2022-09-09T10:11:41;93817.56;;;15.58;87.15
24610;BME280;12758;47.890;11.694;2022-09-09T10:14:14;93821.47;;;15.76;86.80
24610;BME280;12758;47.890;11.694;2022-09-09T10:16:53;93824.75;;;15.86;86.22
24610;BME280;12758;47.890;11.694;2022-09-09T10:19:29;93808.31;;;15.86;83.93
24610;BME280;12758;47.890;11.694;2022-09-09T10:22:02;93804.44;;;15.87;85.07
24610;BME280;12758;47.890;11.694;2022-09-09T10:25:00;93804.72;;;15.62;85.23
24610;BME280;12758;47.890;11.694;2022-09-09T10:27:32;93797.13;;;15.71;84.97
24610;BME280;12758;47.890;11.694;2022-09-09T10:30:09;93809.22;;;15.51;85.13
24610;BME280;12758;47.890;11.694;2022-09-09T10:32:40;93820.91;;;15.67;85.56
24610;BME280;12758;47.890;11.694;2022-09-09T10:35:14;93816.06;;;15.80;85.25
24610;BME280;12758;47.890;11.694;2022-09-09T10:37:46;93807.22;;;15.67;84.23
24610;BME280;12758;47.890;11.694;2022-09-09T10:40:28;93804.88;;;15.69;84.20
24610;BME280;12758;47.890;11.694;2022-09-09T10:43:01;93803.31;;;15.68;84.62
24610;BME280;12758;47.890;11.694;2022-09-09T10:45:33;93802.84;;;15.47;85.49
24610;BME280;12758;47.890;11.694;2022-09-09T10:48:15;93812.69;;;15.67;85.28
24610;BME280;12758;47.890;11.694;2022-09-09T10:50:52;93815.09;;;15.72;83.74
24610;BME280;12758;47.890;11.694;2022-09-09T10:53:27;93823.44;;;15.60;84.91
24610;BME280;12758;47.890;11.694;2022-09-09T10:56:02;93824.91;;;15.54;85.50
24610;BME280;12758;47.890;11.694;2022-09-09T10:58:34;93827.47;;;15.66;85.19
24610;BME280;12758;47.890;11.694;2022-09-09T11:01:03;93824.69;;;15.82;84.09
24610;BME280;12758;47.890;11.694;2022-09-09T11:03:34;93821.13;;;15.62;85.58
24610;BME280;12758;47.890;11.694;2022-09-09T11:06:05;93820.41;;;15.65;86.04
24610;BME280;12758;47.890;11.694;2022-09-09T11:08:34;93816.03;;;15.60;87.37
24610;BME280;12758;47.890;11.694;2022-09-09T11:11:03;93822.19;;;15.73;86.70
24610;BME280;12758;47.890;11.694;2022-09-09T11:13:39;93822.31;;;15.61;87.82
24610;BME280;12758;47.890;11.694;2022-09-09T11:16:16;93815.50;;;15.71;86.93
24610;BME280;12758;47.890;11.694;2022-09-09T11:18:45;93826.13;;;15.76;86.56
24610;BME280;12758;47.890;11.694;2022-09-09T11:21:15;93819.84;;;15.95;86.26
24610;BME280;12758;47.890;11.694;2022-09-09T11:23:45;93810.13;;;15.97;85.03
24610;BME280;12758;47.890;11.694;2022-09-09T11:26:17;93808.06;;;16.14;84.45
24610;BME280;12758;47.890;11.694;2022-09-09T11:28:53;93814.94;;;16.04;85.07
24610;BME280;12758;47.890;11.694;2022-09-09T11:31:30;93819.00;;;15.91;86.74
24610;BME280;12758;47.890;11.694;2022-09-09T11:34:12;93815.78;;;16.08;85.16
24610;BME280;12758;47.890;11.694;2022-09-09T11:37:01;93809.28;;;16.16;84.48
24610;BME280;12758;47.890;11.694;2022-09-09T11:42:39;93807.56;;;16.08;84.94
24610;BME280;12758;47.890;11.694;2022-09-09T11:45:20;93812.03;;;16.16;84.83
24610;BME280;12758;47.890;11.694;2022-09-09T11:47:53;93812.88;;;16.20;84.40
24610;BME280;12758;47.890;11.694;2022-09-09T11:50:38;93812.88;;;16.20;84.53
24610;BME280;12758;47.890;11.694;2022-09-09T11:53:19;93808.78;;;16.11;85.53
24610;BME280;12758;47.890;11.694;2022-09-09T11:58:37;93803.25;;;16.07;84.34
24610;BME280;12758;47.890;11.694;2022-09-09T12:01:16;93800.63;;;16.14;84.21
24610;BME280;12758;47.890;11.694;2022-09-09T12:03:54;93803.38;;;16.14;85.41
24610;BME280;12758;47.890;11.694;2022-09-09T12:06:25;93808.00;;;16.10;85.39
24610;BME280;12758;47.890;11.694;2022-09-09T12:08:55;93808.50;;;16.16;83.52
24610;BME280;12758;47.890;11.694;2022-09-09T12:11:24;93809.03;;;16.02;84.51
24610;BME280;12758;47.890;11.694;2022-09-09T12:13:55;93808.66;;;16.03;84.64
24610;BME280;12758;47.890;11.694;2022-09-09T12:16:29;93808.72;;;16.07;83.85
24610;BME280;12758;47.890;11.694;2022-09-09T12:19:06;93809.50;;;16.07;83.86
24610;BME280;12758;47.890;11.694;2022-09-09T12:21:35;93808.72;;;16.07;84.44
24610;BME280;12758;47.890;11.694;2022-09-09T12:24:05;93811.97;;;16.13;84.38
24610;BME280;12758;47.890;11.694;2022-09-09T12:26:35;93801.69;;;16.06;83.99
24610;BME280;12758;47.890;11.694;2022-09-09T12:29:11;93806.84;;;16.11;83.94
24610;BME280;12758;47.890;11.694;2022-09-09T12:31:41;93798.03;;;16.21;83.52
24610;BME280;12758;47.890;11.694;2022-09-09T12:34:11;93797.34;;;16.05;83.68
24610;BME280;12758;47.890;11.694;2022-09-09T12:36:40;93807.44;;;16.24;83.40
24610;BME280;12758;47.890;11.694;2022-09-09T12:39:14;93798.28;;;16.36;82.27
24610;BME280;12758;47.890;11.694;2022-09-09T12:41:50;93801.13;;;16.43;81.85
24610;BME280;12758;47.890;11.694;2022-09-09T12:44:19;93797.53;;;16.39;81.29
24610;BME280;12758;47.890;11.694;2022-09-09T12:46:45;93799.25;;;16.47;81.85
24610;BME280;12758;47.890;11.694;2022-09-09T12:49:24;93796.91;;;16.49;80.99
24610;BME280;12758;47.890;11.694;2022-09-09T12:51:52;93791.44;;;16.49;81.10
24610;BME280;12758;47.890;11.694;2022-09-09T12:54:19;93794.56;;;16.47;81.98
24610;BME280;12758;47.890;11.694;2022-09-09T12:56:45;93790.34;;;16.30;82.61
24610;BME280;12758;47.890;11.694;2022-09-09T12:59:22;93786.34;;;16.24;83.66
24610;BME280;12758;47.890;11.694;2022-09-09T13:01:55;93780.78;;;16.21;82.95
24610;BME280;12758;47.890;11.694;2022-09-09T13:04:21;93774.34;;;16.33;82.23
24610;BME280;12758;47.890;11.694;2022-09-09T13:06:47;93774.88;;;16.42;81.06
24610;BME280;12758;47.890;11.694;2022-09-09T13:09:14;93778.78;;;16.41;81.40